createdAt,value
2018-05-09T16:24:32.530Z,1001.03
2018-05-09T16:25:32.466Z,1001.04
2018-05-09T16:26:32.405Z,1001.00
2018-05-09T16:27:32.370Z,1001.00
2018-05-09T16:28:32.314Z,1001.03
2018-05-09T16:29:32.276Z,1000.98
2018-05-09T16:30:32.231Z,1001.03
2018-05-09T16:31:32.176Z,1001.01
2018-05-09T16:32:32.138Z,1000.97
2018-05-09T16:33:32.090Z,1000.99
2018-05-09T16:34:32.048Z,1000.96
2018-05-09T16:35:32.007Z,1000.97
2018-05-09T16:36:31.957Z,1000.97
2018-05-09T16:37:31.916Z,1000.96
2018-05-09T16:38:31.877Z,1000.98
2018-05-09T16:39:31.829Z,1001.00
2018-05-09T16:40:31.785Z,1000.99
2018-05-09T16:41:31.747Z,1000.97
2018-05-09T16:42:31.703Z,1001.00
2018-05-09T16:43:31.658Z,1001.02
2018-05-09T16:44:31.626Z,1001.00
2018-05-09T16:45:31.577Z,1000.99
2018-05-09T16:46:31.536Z,1000.98
2018-05-09T16:47:31.494Z,1001.01
2018-05-09T16:48:31.449Z,1001.00
2018-05-09T16:49:31.417Z,1001.00
2018-05-09T16:50:31.368Z,1001.03
2018-05-09T16:51:31.323Z,1001.03
2018-05-09T16:52:31.284Z,1000.97
2018-05-09T16:53:31.243Z,1000.99
2018-05-09T16:54:31.211Z,1000.97
2018-05-09T16:55:31.160Z,1000.95
2018-05-09T16:56:31.121Z,1000.95
2018-05-09T16:57:31.080Z,1001.00
2018-05-09T16:58:31.038Z,1000.96
2018-05-09T16:59:31.002Z,1000.96
2018-05-09T17:00:30.957Z,1000.98
2018-05-09T17:01:30.951Z,1000.97
2018-05-09T17:02:30.878Z,1000.98
2018-05-09T17:03:30.830Z,1000.96
2018-05-09T17:04:30.788Z,1000.96
2018-05-09T17:05:30.777Z,1000.98
2018-05-09T17:06:30.714Z,1001.00
2018-05-09T17:07:30.666Z,1001.01
2018-05-09T17:08:30.640Z,1000.97
2018-05-09T17:09:30.599Z,1000.96
2018-05-09T17:10:30.546Z,1000.94
2018-05-09T17:11:30.507Z,1000.94
2018-05-09T17:12:30.479Z,1001.00
2018-05-09T17:13:30.429Z,1000.94
2018-05-09T17:14:30.385Z,1000.93
2018-05-09T17:15:30.347Z,1000.94
2018-05-09T17:16:30.306Z,1000.90
2018-05-09T17:17:30.264Z,1000.92
2018-05-09T17:18:30.229Z,1000.93
2018-05-09T17:19:30.181Z,1000.94
2018-05-09T17:20:30.140Z,1000.94
2018-05-09T17:21:30.099Z,1000.91
2018-05-09T17:22:30.059Z,1000.94
2018-05-09T17:23:30.016Z,1000.94
2018-05-09T17:24:29.986Z,1000.94
2018-05-09T17:25:29.942Z,1000.92
2018-05-09T17:26:29.898Z,1000.94
2018-05-09T17:27:29.856Z,1000.94
2018-05-09T17:28:29.811Z,1000.90
2018-05-09T17:29:29.774Z,1000.97
2018-05-09T17:30:29.835Z,1000.94
2018-05-09T17:31:29.690Z,1000.92
2018-05-09T17:32:29.655Z,1000.93
2018-05-09T17:33:29.683Z,1000.89
2018-05-09T17:34:29.571Z,1000.91
2018-05-09T17:35:29.533Z,1000.90
2018-05-09T17:36:29.485Z,1000.93
2018-05-09T17:37:29.449Z,1000.92
2018-05-09T17:38:29.414Z,1000.92
2018-05-09T17:39:29.367Z,1000.91
2018-05-09T17:40:29.329Z,1000.91
2018-05-09T17:41:29.300Z,1000.92
2018-05-09T17:42:29.297Z,1000.91
2018-05-09T17:43:29.211Z,1000.97
2018-05-09T17:44:29.168Z,1000.92
2018-05-09T17:45:29.127Z,1000.94
2018-05-09T17:46:29.091Z,1000.97
2018-05-09T17:47:29.051Z,1000.97
2018-05-09T17:48:29.008Z,1001.00
2018-05-09T17:49:28.965Z,1000.96
2018-05-09T17:50:28.934Z,1000.98
2018-05-09T17:51:28.886Z,1001.00
2018-05-09T17:52:28.843Z,1000.99
2018-05-09T17:53:28.812Z,1001.00
2018-05-09T17:54:28.766Z,1000.98
2018-05-09T17:55:28.713Z,1001.01
2018-05-09T17:56:28.681Z,1001.03
2018-05-09T17:57:28.651Z,1001.01
2018-05-09T17:58:28.601Z,1001.00
2018-05-09T17:59:28.597Z,1001.01
2018-05-09T18:00:28.523Z,1001.00
2018-05-09T18:01:28.485Z,1001.01
2018-05-09T18:02:28.441Z,1000.98
2018-05-09T18:03:28.408Z,1000.98
2018-05-09T18:04:28.367Z,1000.99
2018-05-09T18:05:28.318Z,1000.95
2018-05-09T18:06:28.282Z,1000.93
2018-05-09T18:07:28.235Z,1000.94
2018-05-09T18:08:28.193Z,1000.94
2018-05-09T18:09:28.156Z,1000.91
2018-05-09T18:10:28.126Z,1000.94
2018-05-09T18:11:28.080Z,1000.90
2018-05-09T18:12:28.054Z,1000.91
2018-05-09T18:13:28.003Z,1000.86
2018-05-09T18:14:27.955Z,1000.88
2018-05-09T18:15:27.917Z,1000.88
2018-05-09T18:16:27.879Z,1000.87
2018-05-09T18:17:27.839Z,1000.86
2018-05-09T18:18:27.793Z,1000.84
2018-05-09T18:19:27.747Z,1000.87
2018-05-09T18:20:27.719Z,1000.88
2018-05-09T18:21:27.674Z,1000.86
2018-05-09T18:22:27.636Z,1000.90
2018-05-09T18:23:27.587Z,1000.90
2018-05-09T18:24:27.547Z,1000.87
2018-05-09T18:25:27.508Z,1000.90
2018-05-09T18:26:27.463Z,1000.91
2018-05-09T18:27:27.435Z,1000.93
2018-05-09T18:28:27.396Z,1000.88
2018-05-09T18:29:27.349Z,1000.90
2018-05-09T18:30:27.308Z,1000.91
2018-05-09T18:31:27.286Z,1000.86
2018-05-09T18:32:27.224Z,1000.89
2018-05-09T18:33:27.278Z,1000.88
2018-05-09T18:34:27.151Z,1000.90
2018-05-09T18:35:27.105Z,1000.95
2018-05-09T18:36:27.066Z,1000.95
2018-05-09T18:37:27.028Z,1000.92
2018-05-09T18:38:26.986Z,1000.94
2018-05-09T18:39:26.945Z,1000.95
2018-05-09T18:40:26.903Z,1000.95
2018-05-09T18:41:26.875Z,1000.99
2018-05-09T18:42:26.821Z,1000.97
2018-05-09T18:43:26.785Z,1001.00
2018-05-09T18:44:26.740Z,1000.99
2018-05-09T18:45:26.705Z,1001.00
2018-05-09T18:46:26.711Z,1001.00
2018-05-09T18:47:26.622Z,1001.05
2018-05-09T18:48:26.586Z,1001.05
2018-05-09T18:49:26.540Z,1001.05
2018-05-09T18:50:26.502Z,1001.07
2018-05-09T18:51:26.457Z,1001.03
2018-05-09T18:52:26.425Z,1001.05
2018-05-09T18:53:26.377Z,1001.07
2018-05-09T18:54:26.341Z,1001.07
2018-05-09T18:55:26.317Z,1001.08
2018-05-09T18:56:26.259Z,1001.07
2018-05-09T18:57:26.223Z,1001.10
2018-05-09T18:58:26.171Z,1001.09
2018-05-09T18:59:26.134Z,1001.06
2018-05-09T19:00:26.101Z,1001.10
2018-05-09T19:01:26.057Z,1001.10
2018-05-09T19:02:26.021Z,1001.10
2018-05-09T19:03:25.979Z,1001.11
2018-05-09T19:04:25.937Z,1001.08
2018-05-09T19:05:25.894Z,1001.11
2018-05-09T19:06:25.918Z,1001.09
2018-05-09T19:07:25.840Z,1001.09
2018-05-09T19:08:25.857Z,1001.09
2018-05-09T19:09:25.760Z,1001.12
2018-05-09T19:10:25.693Z,1001.11
2018-05-09T19:11:25.731Z,1001.13
2018-05-09T19:12:25.622Z,1001.12
2018-05-09T19:13:25.575Z,1001.12
2018-05-09T19:14:25.526Z,1001.08
2018-05-09T19:15:25.491Z,1001.10
2018-05-09T19:16:25.538Z,1001.11
2018-05-09T19:17:25.411Z,1001.12
2018-05-09T19:18:25.379Z,1001.12
2018-05-09T19:19:25.335Z,1001.13
2018-05-09T19:20:25.286Z,1001.12
2018-05-09T19:21:25.248Z,1001.11
2018-05-09T19:22:25.215Z,1001.11
2018-05-09T19:23:25.166Z,1001.07
2018-05-09T19:24:25.124Z,1001.10
2018-05-09T19:25:25.090Z,1001.04
2018-05-09T19:26:25.043Z,1001.07
2018-05-09T19:27:25.007Z,1001.07
2018-05-09T19:28:24.962Z,1001.03
2018-05-09T19:29:24.917Z,1001.05
2018-05-09T19:30:24.885Z,1001.06
2018-05-09T19:31:24.843Z,1001.05
2018-05-09T19:32:24.799Z,1001.05
2018-05-09T19:33:24.766Z,1001.03
2018-05-09T19:34:24.717Z,1001.01
2018-05-09T19:35:24.676Z,1001.08
2018-05-09T19:36:24.637Z,1001.05
2018-05-09T19:37:24.598Z,1001.09
2018-05-09T19:38:24.552Z,1001.12
2018-05-09T19:39:24.513Z,1001.08
2018-05-09T19:40:24.481Z,1001.09
2018-05-09T19:41:24.516Z,1001.08
2018-05-09T19:42:24.394Z,1001.07
2018-05-09T19:43:24.354Z,1001.07
2018-05-09T19:44:24.313Z,1001.10
2018-05-09T19:45:24.275Z,1001.13
2018-05-09T19:46:24.236Z,1001.10
2018-05-09T19:47:24.189Z,1001.12
2018-05-09T19:48:24.155Z,1001.15
2018-05-09T19:49:24.117Z,1001.13
2018-05-09T19:50:24.066Z,1001.14
2018-05-09T19:51:24.027Z,1001.18
2018-05-09T19:52:23.998Z,1001.20
2018-05-09T19:53:23.963Z,1001.21
2018-05-09T19:54:23.915Z,1001.20
2018-05-09T19:55:23.870Z,1001.23
2018-05-09T19:56:23.835Z,1001.23
2018-05-09T19:57:23.783Z,1001.25
2018-05-09T19:58:23.758Z,1001.24
2018-05-09T19:59:23.710Z,1001.26
2018-05-09T20:00:23.669Z,1001.26
2018-05-09T20:01:23.623Z,1001.27
2018-05-09T20:02:23.592Z,1001.28
2018-05-09T20:03:23.543Z,1001.24
2018-05-09T20:04:23.508Z,1001.25
2018-05-09T20:05:23.463Z,1001.25
2018-05-09T20:06:23.421Z,1001.27
2018-05-09T20:07:23.383Z,1001.27
2018-05-09T20:08:23.337Z,1001.25
2018-05-09T20:09:23.306Z,1001.27
2018-05-09T20:10:23.263Z,1001.29
2018-05-09T20:11:23.218Z,1001.30
2018-05-09T20:12:23.177Z,1001.27
2018-05-09T20:13:23.139Z,1001.28
2018-05-09T20:14:23.097Z,1001.30
2018-05-09T20:15:23.062Z,1001.30
2018-05-09T20:16:23.017Z,1001.27
2018-05-09T20:17:22.980Z,1001.26
2018-05-09T20:18:22.938Z,1001.30
2018-05-09T20:19:22.902Z,1001.27
2018-05-09T20:20:22.863Z,1001.27
2018-05-09T20:21:22.813Z,1001.25
2018-05-09T20:22:22.772Z,1001.27
2018-05-09T20:23:22.730Z,1001.28
2018-05-09T20:24:22.695Z,1001.26
2018-05-09T20:25:22.660Z,1001.27
2018-05-09T20:26:22.622Z,1001.29
2018-05-09T20:27:22.571Z,1001.27
2018-05-09T20:28:22.532Z,1001.28
2018-05-09T20:29:22.491Z,1001.25
2018-05-09T20:30:22.453Z,1001.27
2018-05-09T20:31:22.417Z,1001.27
2018-05-09T20:32:22.374Z,1001.26
2018-05-09T20:33:22.339Z,1001.25
2018-05-09T20:34:22.295Z,1001.28
2018-05-09T20:35:22.260Z,1001.25
2018-05-09T20:36:22.211Z,1001.26
2018-05-09T20:37:22.173Z,1001.22
2018-05-09T20:38:22.126Z,1001.23
2018-05-09T20:39:22.084Z,1001.24
2018-05-09T20:40:22.043Z,1001.23
2018-05-09T20:41:22.036Z,1001.22
2018-05-09T20:42:21.966Z,1001.25
2018-05-09T20:43:21.923Z,1001.23
2018-05-09T20:44:21.882Z,1001.25
2018-05-09T20:45:21.835Z,1001.27
2018-05-09T20:46:21.808Z,1001.29
2018-05-09T20:47:21.759Z,1001.34
2018-05-09T20:48:21.721Z,1001.32
2018-05-09T20:49:21.679Z,1001.33
2018-05-09T20:50:21.637Z,1001.35
2018-05-09T20:51:21.599Z,1001.36
2018-05-09T20:52:21.570Z,1001.41
2018-05-09T20:53:21.617Z,1001.37
2018-05-09T20:54:21.471Z,1001.40
2018-05-09T20:55:21.445Z,1001.43
2018-05-09T20:56:21.427Z,1001.44
2018-05-09T20:57:21.355Z,1001.42
2018-05-09T20:58:21.314Z,1001.46
2018-05-09T20:59:21.269Z,1001.47
2018-05-09T21:00:21.237Z,1001.48
2018-05-09T21:01:21.195Z,1001.50
2018-05-09T21:02:21.153Z,1001.51
2018-05-09T21:03:21.121Z,1001.48
2018-05-09T21:04:21.073Z,1001.48
2018-05-09T21:05:21.032Z,1001.48
2018-05-09T21:06:20.983Z,1001.47
2018-05-09T21:07:20.950Z,1001.45
2018-05-09T21:08:20.911Z,1001.50
2018-05-09T21:09:20.934Z,1001.50
2018-05-09T21:10:20.838Z,1001.47
2018-05-09T21:11:20.793Z,1001.49
2018-05-09T21:12:20.778Z,1001.54
2018-05-09T21:13:20.723Z,1001.53
2018-05-09T21:14:20.669Z,1001.53
2018-05-09T21:15:20.638Z,1001.50
2018-05-09T21:16:20.598Z,1001.51
2018-05-09T21:17:20.547Z,1001.53
2018-05-09T21:18:20.535Z,1001.49
2018-05-09T21:19:20.461Z,1001.49
2018-05-09T21:20:20.426Z,1001.54
2018-05-09T21:21:20.387Z,1001.54
2018-05-09T21:22:20.350Z,1001.54
2018-05-09T21:23:20.296Z,1001.53
2018-05-09T21:24:20.268Z,1001.56
2018-05-09T21:25:20.228Z,1001.57
2018-05-09T21:26:20.193Z,1001.58
2018-05-09T21:27:20.133Z,1001.58
2018-05-09T21:28:20.104Z,1001.55
2018-05-09T21:29:20.079Z,1001.57
2018-05-09T21:30:20.031Z,1001.60
2018-05-09T21:31:19.985Z,1001.62
2018-05-09T21:32:19.943Z,1001.63
2018-05-09T21:33:19.901Z,1001.58
2018-05-09T21:34:19.856Z,1001.62
2018-05-09T21:35:19.847Z,1001.59
2018-05-09T21:36:19.771Z,1001.58
2018-05-09T21:37:19.732Z,1001.58
2018-05-09T21:38:19.695Z,1001.62
2018-05-09T21:39:19.655Z,1001.61
2018-05-09T21:40:19.617Z,1001.59
2018-05-09T21:41:19.575Z,1001.57
2018-05-09T21:42:19.533Z,1001.60
2018-05-09T21:43:19.501Z,1001.61
2018-05-09T21:44:19.463Z,1001.62
2018-05-09T21:45:19.415Z,1001.60
2018-05-09T21:46:19.371Z,1001.57
2018-05-09T21:47:19.331Z,1001.60
2018-05-09T21:48:19.286Z,1001.60
2018-05-09T21:49:19.251Z,1001.62
2018-05-09T21:50:19.215Z,1001.62
2018-05-09T21:51:19.173Z,1001.60
2018-05-09T21:52:19.125Z,1001.64
2018-05-09T21:53:19.090Z,1001.66
2018-05-09T21:54:19.039Z,1001.64
2018-05-09T21:55:19.003Z,1001.68
2018-05-09T21:56:18.965Z,1001.69
2018-05-09T21:57:18.932Z,1001.67
2018-05-09T21:58:18.891Z,1001.70
2018-05-09T21:59:18.845Z,1001.73
2018-05-09T22:00:18.805Z,1001.68
2018-05-09T22:01:18.778Z,1001.67
2018-05-09T22:02:18.724Z,1001.69
2018-05-09T22:03:18.683Z,1001.73
2018-05-09T22:04:18.641Z,1001.71
2018-05-09T22:05:18.605Z,1001.73
2018-05-09T22:06:18.566Z,1001.74
2018-05-09T22:07:18.528Z,1001.75
2018-05-09T22:08:18.489Z,1001.77
2018-05-09T22:09:18.437Z,1001.75
2018-05-09T22:10:18.409Z,1001.77
2018-05-09T22:11:18.358Z,1001.80
2018-05-09T22:12:18.316Z,1001.76
2018-05-09T22:13:18.278Z,1001.79
2018-05-09T22:14:18.246Z,1001.78
2018-05-09T22:15:18.198Z,1001.78
2018-05-09T22:16:18.157Z,1001.76
2018-05-09T22:17:18.112Z,1001.80
2018-05-09T22:18:18.076Z,1001.79
2018-05-09T22:19:18.028Z,1001.80
2018-05-09T22:20:18.003Z,1001.79
2018-05-09T22:21:17.953Z,1001.81
2018-05-09T22:22:17.927Z,1001.82
2018-05-09T22:23:17.882Z,1001.78
2018-05-09T22:24:17.840Z,1001.78
2018-05-09T22:25:17.783Z,1001.77
2018-05-09T22:26:17.752Z,1001.79
2018-05-09T22:27:17.719Z,1001.81
2018-05-09T22:28:17.676Z,1001.78
2018-05-09T22:29:17.731Z,1001.82
2018-05-09T22:30:17.588Z,1001.75
2018-05-09T22:31:17.558Z,1001.77
2018-05-09T22:32:17.506Z,1001.78
2018-05-09T22:33:17.465Z,1001.76
2018-05-09T22:34:17.421Z,1001.76
2018-05-09T22:35:17.386Z,1001.78
2018-05-09T22:36:17.348Z,1001.76
2018-05-09T22:37:17.309Z,1001.78
2018-05-09T22:38:17.271Z,1001.76
2018-05-09T22:39:17.226Z,1001.80
2018-05-09T22:40:17.181Z,1001.78
2018-05-09T22:41:17.142Z,1001.75
2018-05-09T22:42:17.097Z,1001.78
2018-05-09T22:43:17.050Z,1001.77
2018-05-09T22:44:17.026Z,1001.74
2018-05-09T22:45:16.979Z,1001.72
2018-05-09T22:46:16.948Z,1001.73
2018-05-09T22:47:16.898Z,1001.67
2018-05-09T22:48:16.857Z,1001.70
2018-05-09T22:49:16.818Z,1001.67
2018-05-09T22:50:16.776Z,1001.66
2018-05-09T22:51:16.731Z,1001.68
2018-05-09T22:52:16.696Z,1001.72
2018-05-09T22:53:16.658Z,1001.67
2018-05-09T22:54:16.616Z,1001.68
2018-05-09T22:55:16.574Z,1001.65
2018-05-09T22:56:16.536Z,1001.68
2018-05-09T22:57:16.508Z,1001.65
2018-05-09T22:58:16.469Z,1001.67
2018-05-09T22:59:16.414Z,1001.68
2018-05-09T23:00:16.471Z,1001.63
2018-05-09T23:01:16.333Z,1001.65
2018-05-09T23:02:16.288Z,1001.64
2018-05-09T23:03:16.256Z,1001.65
2018-05-09T23:04:16.211Z,1001.69
2018-05-09T23:05:16.168Z,1001.68
2018-05-09T23:06:16.133Z,1001.68
2018-05-09T23:07:16.091Z,1001.71
2018-05-09T23:08:16.047Z,1001.71
2018-05-09T23:09:15.999Z,1001.68
2018-05-09T23:10:16.061Z,1001.73
2018-05-09T23:11:15.929Z,1001.75
2018-05-09T23:12:15.890Z,1001.74
2018-05-09T23:13:15.846Z,1001.72
2018-05-09T23:14:15.804Z,1001.76
2018-05-09T23:15:15.771Z,1001.74
2018-05-09T23:16:15.724Z,1001.76
2018-05-09T23:17:15.683Z,1001.74
2018-05-09T23:18:15.775Z,1001.75
2018-05-09T23:19:15.603Z,1001.72
2018-05-09T23:20:15.562Z,1001.73
2018-05-09T23:21:15.523Z,1001.74
2018-05-09T23:22:15.511Z,1001.72
2018-05-09T23:23:15.440Z,1001.75
2018-05-09T23:24:15.428Z,1001.75
2018-05-09T23:25:15.408Z,1001.71
2018-05-09T23:26:15.317Z,1001.76
2018-05-09T23:27:15.281Z,1001.77
2018-05-09T23:28:15.239Z,1001.76
2018-05-09T23:29:15.202Z,1001.75
2018-05-09T23:30:15.161Z,1001.80
2018-05-09T23:31:15.120Z,1001.77
2018-05-09T23:32:15.097Z,1001.80
2018-05-09T23:33:15.036Z,1001.83
2018-05-09T23:34:14.998Z,1001.85
2018-05-09T23:35:14.948Z,1001.88
2018-05-09T23:36:14.916Z,1001.89
2018-05-09T23:37:14.877Z,1001.88
2018-05-09T23:38:14.836Z,1001.87
2018-05-09T23:39:14.795Z,1001.88
2018-05-09T23:40:14.752Z,1001.87
2018-05-09T23:41:14.716Z,1001.90
2018-05-09T23:42:14.675Z,1001.85
2018-05-09T23:43:14.643Z,1001.86
2018-05-09T23:44:14.592Z,1001.85
2018-05-09T23:45:14.630Z,1001.86
2018-05-09T23:46:14.531Z,1001.84
2018-05-09T23:47:14.475Z,1001.88
2018-05-09T23:48:14.434Z,1001.88
2018-05-09T23:49:14.388Z,1001.86
2018-05-09T23:50:14.353Z,1001.87
2018-05-09T23:51:14.373Z,1001.89
2018-05-09T23:52:14.313Z,1001.91
2018-05-09T23:53:14.235Z,1001.92
2018-05-09T23:54:14.191Z,1001.91
2018-05-09T23:55:14.151Z,1001.93
2018-05-09T23:56:14.146Z,1001.95
2018-05-09T23:57:14.069Z,1001.97
2018-05-09T23:58:14.028Z,1001.98
2018-05-09T23:59:13.985Z,1001.95
